sensor_id;sensor_type;location;lat;lon;timestamp;temperature;humidity
28171;DHT22;15458;53.346;-1.688;2024-01-30T00:00:02;10.30;99.90
28171;DHT22;15458;53.346;-1.688;2024-01-30T00:02:30;10.30;99.90
28171;DHT22;15458;53.346;-1.688;2024-01-30T00:04:56;10.30;99.90
28171;DHT22;15458;53.346;-1.688;2024-01-30T00:07:22;10.30;99.90
28171;DHT22;15458;53.346;-1.688;2024-01-30T00:09:47;10.30;99.90
28171;DHT22;15458;53.346;-1.688;2024-01-30T00:12:13;10.30;99.90
28171;DHT22;15458;53.346;-1.688;2024-01-30T00:14:42;10.30;99.90
28171;DHT22;15458;53.346;-1.688;2024-01-30T00:17:09;10.30;99.90
28171;DHT22;15458;53.346;-1.688;2024-01-30T00:19:35;10.30;99.90
28171;DHT22;15458;53.346;-1.688;2024-01-30T00:22:00;10.30;99.90
28171;DHT22;15458;53.346;-1.688;2024-01-30T00:24:26;10.30;99.90
28171;DHT22;15458;53.346;-1.688;2024-01-30T00:26:52;10.30;99.90
28171;DHT22;15458;53.346;-1.688;2024-01-30T00:29:18;10.30;99.90
28171;DHT22;15458;53.346;-1.688;2024-01-30T00:31:45;10.30;99.90
28171;DHT22;15458;53.346;-1.688;2024-01-30T00:34:11;10.30;99.90
28171;DHT22;15458;53.346;-1.688;2024-01-30T00:36:37;10.40;99.90
28171;DHT22;15458;53.346;-1.688;2024-01-30T00:39:03;10.40;99.90
28171;DHT22;15458;53.346;-1.688;2024-01-30T00:41:32;10.40;99.90
28171;DHT22;15458;53.346;-1.688;2024-01-30T00:43:57;10.50;99.90
28171;DHT22;15458;53.346;-1.688;2024-01-30T00:46:23;10.50;99.90
28171;DHT22;15458;53.346;-1.688;2024-01-30T00:48:49;10.50;99.90
28171;DHT22;15458;53.346;-1.688;2024-01-30T00:51:14;10.50;99.90
28171;DHT22;15458;53.346;-1.688;2024-01-30T00:53:40;10.50;99.90
28171;DHT22;15458;53.346;-1.688;2024-01-30T00:56:07;10.50;99.90
28171;DHT22;15458;53.346;-1.688;2024-01-30T00:58:34;10.50;99.90
28171;DHT22;15458;53.346;-1.688;2024-01-30T01:01:00;10.40;99.90
28171;DHT22;15458;53.346;-1.688;2024-01-30T01:03:26;10.50;99.90
28171;DHT22;15458;53.346;-1.688;2024-01-30T01:05:52;10.50;99.90
28171;DHT22;15458;53.346;-1.688;2024-01-30T01:08:18;10.50;99.90
28171;DHT22;15458;53.346;-1.688;2024-01-30T01:10:44;10.50;99.90
28171;DHT22;15458;53.346;-1.688;2024-01-30T01:13:09;10.50;99.90
28171;DHT22;15458;53.346;-1.688;2024-01-30T01:15:35;10.40;99.90
28171;DHT22;15458;53.346;-1.688;2024-01-30T01:18:01;10.40;99.90
28171;DHT22;15458;53.346;-1.688;2024-01-30T01:20:26;10.40;99.90
28171;DHT22;15458;53.346;-1.688;2024-01-30T01:22:52;10.40;99.90
28171;DHT22;15458;53.346;-1.688;2024-01-30T01:25:18;10.40;99.90
28171;DHT22;15458;53.346;-1.688;2024-01-30T01:27:44;10.40;99.90
28171;DHT22;15458;53.346;-1.688;2024-01-30T01:30:16;10.40;99.90
28171;DHT22;15458;53.346;-1.688;2024-01-30T01:32:49;10.40;99.90
28171;DHT22;15458;53.346;-1.688;2024-01-30T01:35:23;10.40;99.90
28171;DHT22;15458;53.346;-1.688;2024-01-30T01:37:53;10.40;99.90
28171;DHT22;15458;53.346;-1.688;2024-01-30T01:40:24;10.40;99.90
28171;DHT22;15458;53.346;-1.688;2024-01-30T01:42:54;10.40;99.90
28171;DHT22;15458;53.346;-1.688;2024-01-30T01:45:20;10.40;99.90
28171;DHT22;15458;53.346;-1.688;2024-01-30T01:47:48;10.40;99.90
28171;DHT22;15458;53.346;-1.688;2024-01-30T01:50:16;10.40;99.90
28171;DHT22;15458;53.346;-1.688;2024-01-30T01:52:49;10.30;99.90
28171;DHT22;15458;53.346;-1.688;2024-01-30T01:55:16;10.30;99.90
28171;DHT22;15458;53.346;-1.688;2024-01-30T01:57:44;10.30;99.90
28171;DHT22;15458;53.346;-1.688;2024-01-30T02:00:11;10.00;99.90
28171;DHT22;15458;53.346;-1.688;2024-01-30T02:02:39;9.80;99.90
28171;DHT22;15458;53.346;-1.688;2024-01-30T02:05:05;9.70;99.90
28171;DHT22;15458;53.346;-1.688;2024-01-30T02:07:31;9.50;99.90
28171;DHT22;15458;53.346;-1.688;2024-01-30T02:09:57;9.40;99.90
28171;DHT22;15458;53.346;-1.688;2024-01-30T02:12:22;9.30;99.90
28171;DHT22;15458;53.346;-1.688;2024-01-30T02:14:49;9.10;99.90
28171;DHT22;15458;53.346;-1.688;2024-01-30T02:17:15;9.00;99.90
28171;DHT22;15458;53.346;-1.688;2024-01-30T02:19:42;8.90;99.90
28171;DHT22;15458;53.346;-1.688;2024-01-30T02:22:09;8.80;99.90
28171;DHT22;15458;53.346;-1.688;2024-01-30T02:24:35;8.80;99.90
28171;DHT22;15458;53.346;-1.688;2024-01-30T02:27:01;8.70;99.90
28171;DHT22;15458;53.346;-1.688;2024-01-30T02:29:26;8.60;99.90
28171;DHT22;15458;53.346;-1.688;2024-01-30T02:31:52;8.50;99.90
28171;DHT22;15458;53.346;-1.688;2024-01-30T02:34:19;8.50;99.90
28171;DHT22;15458;53.346;-1.688;2024-01-30T02:36:45;8.40;99.90
28171;DHT22;15458;53.346;-1.688;2024-01-30T02:39:11;8.40;99.90
28171;DHT22;15458;53.346;-1.688;2024-01-30T02:41:37;8.30;99.90
28171;DHT22;15458;53.346;-1.688;2024-01-30T02:44:03;8.20;99.90
28171;DHT22;15458;53.346;-1.688;2024-01-30T02:46:29;8.20;99.90
28171;DHT22;15458;53.346;-1.688;2024-01-30T02:48:55;8.10;99.90
28171;DHT22;15458;53.346;-1.688;2024-01-30T02:51:21;8.10;99.90
28171;DHT22;15458;53.346;-1.688;2024-01-30T02:53:49;8.00;99.90
28171;DHT22;15458;53.346;-1.688;2024-01-30T02:56:15;8.00;99.90
28171;DHT22;15458;53.346;-1.688;2024-01-30T02:58:41;8.00;99.90
28171;DHT22;15458;53.346;-1.688;2024-01-30T03:01:07;7.90;99.90
28171;DHT22;15458;53.346;-1.688;2024-01-30T03:03:32;7.90;99.90
28171;DHT22;15458;53.346;-1.688;2024-01-30T03:06:00;7.90;99.90
28171;DHT22;15458;53.346;-1.688;2024-01-30T03:08:26;7.90;99.90
28171;DHT22;15458;53.346;-1.688;2024-01-30T03:10:52;7.90;99.90
28171;DHT22;15458;53.346;-1.688;2024-01-30T03:13:17;7.90;99.90
28171;DHT22;15458;53.346;-1.688;2024-01-30T03:15:43;7.80;99.90
28171;DHT22;15458;53.346;-1.688;2024-01-30T03:18:09;7.80;99.90
28171;DHT22;15458;53.346;-1.688;2024-01-30T03:20:34;7.80;99.90
28171;DHT22;15458;53.346;-1.688;2024-01-30T03:23:00;7.80;99.90
28171;DHT22;15458;53.346;-1.688;2024-01-30T03:25:26;7.80;99.90
28171;DHT22;15458;53.346;-1.688;2024-01-30T03:27:52;7.80;99.90
28171;DHT22;15458;53.346;-1.688;2024-01-30T03:30:18;7.80;99.90
28171;DHT22;15458;53.346;-1.688;2024-01-30T03:32:44;7.80;99.90
28171;DHT22;15458;53.346;-1.688;2024-01-30T03:35:09;7.80;99.90
28171;DHT22;15458;53.346;-1.688;2024-01-30T03:37:35;7.80;99.90
28171;DHT22;15458;53.346;-1.688;2024-01-30T03:40:02;7.70;99.90
28171;DHT22;15458;53.346;-1.688;2024-01-30T03:42:28;7.70;99.90
28171;DHT22;15458;53.346;-1.688;2024-01-30T03:44:54;7.70;99.90
28171;DHT22;15458;53.346;-1.688;2024-01-30T03:47:21;7.70;99.90
28171;DHT22;15458;53.346;-1.688;2024-01-30T03:49:46;7.70;99.90
28171;DHT22;15458;53.346;-1.688;2024-01-30T03:52:12;7.70;99.90
28171;DHT22;15458;53.346;-1.688;2024-01-30T03:54:38;7.70;99.90
28171;DHT22;15458;53.346;-1.688;2024-01-30T03:57:04;7.70;99.90
28171;DHT22;15458;53.346;-1.688;2024-01-30T03:59:30;7.60;99.90
28171;DHT22;15458;53.346;-1.688;2024-01-30T04:01:55;7.60;99.90
28171;DHT22;15458;53.346;-1.688;2024-01-30T04:04:22;7.50;99.90
28171;DHT22;15458;53.346;-1.688;2024-01-30T04:06:48;7.40;99.90
28171;DHT22;15458;53.346;-1.688;2024-01-30T04:09:14;7.40;99.90
28171;DHT22;15458;53.346;-1.688;2024-01-30T04:11:40;7.40;99.90
28171;DHT22;15458;53.346;-1.688;2024-01-30T04:14:07;7.40;99.90
28171;DHT22;15458;53.346;-1.688;2024-01-30T04:16:33;7.30;99.90
28171;DHT22;15458;53.346;-1.688;2024-01-30T04:18:59;7.30;99.90
28171;DHT22;15458;53.346;-1.688;2024-01-30T04:21:24;7.30;99.90
28171;DHT22;15458;53.346;-1.688;2024-01-30T04:23:53;7.30;99.90
28171;DHT22;15458;53.346;-1.688;2024-01-30T04:26:19;7.30;99.90
28171;DHT22;15458;53.346;-1.688;2024-01-30T04:28:45;7.30;99.90
28171;DHT22;15458;53.346;-1.688;2024-01-30T04:31:11;7.30;99.90
28171;DHT22;15458;53.346;-1.688;2024-01-30T04:33:37;7.30;99.90
28171;DHT22;15458;53.346;-1.688;2024-01-30T04:36:03;7.20;99.90
28171;DHT22;15458;53.346;-1.688;2024-01-30T04:38:31;7.20;99.90
28171;DHT22;15458;53.346;-1.688;2024-01-30T04:40:56;7.20;99.90
28171;DHT22;15458;53.346;-1.688;2024-01-30T04:43:22;7.20;99.90
28171;DHT22;15458;53.346;-1.688;2024-01-30T04:45:49;7.10;99.90
28171;DHT22;15458;53.346;-1.688;2024-01-30T04:48:14;7.10;99.90
28171;DHT22;15458;53.346;-1.688;2024-01-30T04:50:40;7.10;99.90
28171;DHT22;15458;53.346;-1.688;2024-01-30T04:53:06;7.10;99.90
28171;DHT22;15458;53.346;-1.688;2024-01-30T04:55:33;7.10;99.90
28171;DHT22;15458;53.346;-1.688;2024-01-30T04:57:58;7.00;99.90
28171;DHT22;15458;53.346;-1.688;2024-01-30T05:00:24;7.00;99.90
28171;DHT22;15458;53.346;-1.688;2024-01-30T05:02:50;7.00;99.90
28171;DHT22;15458;53.346;-1.688;2024-01-30T05:05:16;7.00;99.90
28171;DHT22;15458;53.346;-1.688;2024-01-30T05:07:42;7.00;99.90
28171;DHT22;15458;53.346;-1.688;2024-01-30T05:10:08;7.10;99.90
28171;DHT22;15458;53.346;-1.688;2024-01-30T05:12:34;7.00;99.90
28171;DHT22;15458;53.346;-1.688;2024-01-30T05:14:59;7.10;99.90
28171;DHT22;15458;53.346;-1.688;2024-01-30T05:17:25;7.00;99.90
28171;DHT22;15458;53.346;-1.688;2024-01-30T05:19:51;7.00;99.90
28171;DHT22;15458;53.346;-1.688;2024-01-30T05:22:16;7.00;99.90
28171;DHT22;15458;53.346;-1.688;2024-01-30T05:24:44;6.90;99.90
28171;DHT22;15458;53.346;-1.688;2024-01-30T05:27:10;6.90;99.90
28171;DHT22;15458;53.346;-1.688;2024-01-30T05:29:35;6.90;99.90
28171;DHT22;15458;53.346;-1.688;2024-01-30T05:32:02;6.90;99.90
28171;DHT22;15458;53.346;-1.688;2024-01-30T05:34:28;6.80;99.90
28171;DHT22;15458;53.346;-1.688;2024-01-30T05:36:54;6.80;99.90
28171;DHT22;15458;53.346;-1.688;2024-01-30T05:39:19;6.80;99.90
28171;DHT22;15458;53.346;-1.688;2024-01-30T05:41:45;6.80;99.90
28171;DHT22;15458;53.346;-1.688;2024-01-30T05:44:11;6.80;99.90
28171;DHT22;15458;53.346;-1.688;2024-01-30T05:46:36;6.80;99.90
28171;DHT22;15458;53.346;-1.688;2024-01-30T05:49:02;6.70;99.90
28171;DHT22;15458;53.346;-1.688;2024-01-30T05:51:28;6.70;99.90
28171;DHT22;15458;53.346;-1.688;2024-01-30T05:53:54;6.70;99.90
28171;DHT22;15458;53.346;-1.688;2024-01-30T05:56:20;6.70;99.90
28171;DHT22;15458;53.346;-1.688;2024-01-30T05:58:45;6.70;99.90
28171;DHT22;15458;53.346;-1.688;2024-01-30T06:01:11;6.70;99.90
28171;DHT22;15458;53.346;-1.688;2024-01-30T06:03:39;6.70;99.90
28171;DHT22;15458;53.346;-1.688;2024-01-30T06:06:06;6.70;99.90
28171;DHT22;15458;53.346;-1.688;2024-01-30T06:08:31;6.70;99.90
28171;DHT22;15458;53.346;-1.688;2024-01-30T06:10:57;6.70;99.90
28171;DHT22;15458;53.346;-1.688;2024-01-30T06:13:23;6.70;99.90
28171;DHT22;15458;53.346;-1.688;2024-01-30T06:15:48;6.70;99.90
28171;DHT22;15458;53.346;-1.688;2024-01-30T06:18:14;6.70;99.90
28171;DHT22;15458;53.346;-1.688;2024-01-30T06:20:40;6.70;99.90
28171;DHT22;15458;53.346;-1.688;2024-01-30T06:23:05;6.60;99.90
28171;DHT22;15458;53.346;-1.688;2024-01-30T06:25:31;6.60;99.90
28171;DHT22;15458;53.346;-1.688;2024-01-30T06:27:57;6.60;99.90
28171;DHT22;15458;53.346;-1.688;2024-01-30T06:30:23;6.60;99.90
28171;DHT22;15458;53.346;-1.688;2024-01-30T06:32:48;6.60;99.90
28171;DHT22;15458;53.346;-1.688;2024-01-30T06:35:14;6.50;99.90
28171;DHT22;15458;53.346;-1.688;2024-01-30T06:37:40;6.50;99.90
28171;DHT22;15458;53.346;-1.688;2024-01-30T06:40:06;6.50;99.90
28171;DHT22;15458;53.346;-1.688;2024-01-30T06:42:32;6.50;99.90
28171;DHT22;15458;53.346;-1.688;2024-01-30T06:44:57;6.50;99.90
28171;DHT22;15458;53.346;-1.688;2024-01-30T06:47:23;6.50;99.90
28171;DHT22;15458;53.346;-1.688;2024-01-30T06:49:49;6.50;99.90
28171;DHT22;15458;53.346;-1.688;2024-01-30T06:52:14;6.50;99.90
28171;DHT22;15458;53.346;-1.688;2024-01-30T06:54:40;6.50;99.90
28171;DHT22;15458;53.346;-1.688;2024-01-30T06:57:06;6.50;99.90
28171;DHT22;15458;53.346;-1.688;2024-01-30T06:59:37;6.40;99.90
28171;DHT22;15458;53.346;-1.688;2024-01-30T07:02:09;6.40;99.90
28171;DHT22;15458;53.346;-1.688;2024-01-30T07:04:37;6.50;99.90
28171;DHT22;15458;53.346;-1.688;2024-01-30T07:07:03;6.50;99.90
28171;DHT22;15458;53.346;-1.688;2024-01-30T07:09:31;6.50;99.90
28171;DHT22;15458;53.346;-1.688;2024-01-30T07:11:56;6.50;99.90
28171;DHT22;15458;53.346;-1.688;2024-01-30T07:14:24;6.40;99.90
28171;DHT22;15458;53.346;-1.688;2024-01-30T07:16:50;6.40;99.90
28171;DHT22;15458;53.346;-1.688;2024-01-30T07:19:16;6.40;99.90
28171;DHT22;15458;53.346;-1.688;2024-01-30T07:21:43;6.30;99.90
28171;DHT22;15458;53.346;-1.688;2024-01-30T07:24:09;6.30;99.90
28171;DHT22;15458;53.346;-1.688;2024-01-30T07:26:35;6.30;99.90
28171;DHT22;15458;53.346;-1.688;2024-01-30T07:29:01;6.30;99.90
28171;DHT22;15458;53.346;-1.688;2024-01-30T07:31:27;6.30;99.90
28171;DHT22;15458;53.346;-1.688;2024-01-30T07:33:52;6.30;99.90
28171;DHT22;15458;53.346;-1.688;2024-01-30T07:36:19;6.30;99.90
28171;DHT22;15458;53.346;-1.688;2024-01-30T07:38:45;6.30;99.90
28171;DHT22;15458;53.346;-1.688;2024-01-30T07:41:11;6.30;99.90
28171;DHT22;15458;53.346;-1.688;2024-01-30T07:43:38;6.30;99.90
28171;DHT22;15458;53.346;-1.688;2024-01-30T07:46:04;6.30;99.90
28171;DHT22;15458;53.346;-1.688;2024-01-30T07:48:34;6.30;99.90
28171;DHT22;15458;53.346;-1.688;2024-01-30T07:51:00;6.30;99.90
28171;DHT22;15458;53.346;-1.688;2024-01-30T07:53:25;6.30;99.90
28171;DHT22;15458;53.346;-1.688;2024-01-30T07:55:52;6.40;99.90
28171;DHT22;15458;53.346;-1.688;2024-01-30T07:58:17;6.40;99.90
28171;DHT22;15458;53.346;-1.688;2024-01-30T08:00:44;6.40;99.90
28171;DHT22;15458;53.346;-1.688;2024-01-30T08:03:10;6.40;99.90
28171;DHT22;15458;53.346;-1.688;2024-01-30T08:05:36;6.40;99.90
28171;DHT22;15458;53.346;-1.688;2024-01-30T08:08:02;6.40;99.90
28171;DHT22;15458;53.346;-1.688;2024-01-30T08:10:27;6.40;99.90
28171;DHT22;15458;53.346;-1.688;2024-01-30T08:12:53;6.40;99.90
28171;DHT22;15458;53.346;-1.688;2024-01-30T08:15:19;6.30;99.90
28171;DHT22;15458;53.346;-1.688;2024-01-30T08:17:45;6.30;99.90
28171;DHT22;15458;53.346;-1.688;2024-01-30T08:20:13;6.30;99.90
28171;DHT22;15458;53.346;-1.688;2024-01-30T08:22:39;6.30;99.90
28171;DHT22;15458;53.346;-1.688;2024-01-30T08:25:08;6.20;99.90
28171;DHT22;15458;53.346;-1.688;2024-01-30T08:27:35;6.20;99.90
28171;DHT22;15458;53.346;-1.688;2024-01-30T08:30:03;6.20;99.90
28171;DHT22;15458;53.346;-1.688;2024-01-30T08:32:29;6.20;99.90
28171;DHT22;15458;53.346;-1.688;2024-01-30T08:34:54;6.20;99.90
28171;DHT22;15458;53.346;-1.688;2024-01-30T08:37:20;6.20;99.90
28171;DHT22;15458;53.346;-1.688;2024-01-30T08:39:46;6.20;99.90
28171;DHT22;15458;53.346;-1.688;2024-01-30T08:42:12;6.20;99.90
28171;DHT22;15458;53.346;-1.688;2024-01-30T08:44:39;6.20;99.90
28171;DHT22;15458;53.346;-1.688;2024-01-30T08:47:05;6.20;99.90
28171;DHT22;15458;53.346;-1.688;2024-01-30T08:49:32;6.20;99.90
28171;DHT22;15458;53.346;-1.688;2024-01-30T08:51:58;6.20;99.90
28171;DHT22;15458;53.346;-1.688;2024-01-30T08:54:24;6.20;99.90
28171;DHT22;15458;53.346;-1.688;2024-01-30T08:56:50;6.20;99.90
28171;DHT22;15458;53.346;-1.688;2024-01-30T08:59:17;6.20;99.90
28171;DHT22;15458;53.346;-1.688;2024-01-30T09:01:48;6.20;99.90
28171;DHT22;15458;53.346;-1.688;2024-01-30T09:04:15;6.20;99.90
28171;DHT22;15458;53.346;-1.688;2024-01-30T09:06:44;6.20;99.90
28171;DHT22;15458;53.346;-1.688;2024-01-30T09:09:10;6.20;99.90
28171;DHT22;15458;53.346;-1.688;2024-01-30T09:11:37;6.20;99.90
28171;DHT22;15458;53.346;-1.688;2024-01-30T09:14:03;6.20;99.90
28171;DHT22;15458;53.346;-1.688;2024-01-30T09:16:31;6.20;99.90
28171;DHT22;15458;53.346;-1.688;2024-01-30T09:18:56;6.20;99.90
28171;DHT22;15458;53.346;-1.688;2024-01-30T09:21:23;6.20;99.90
28171;DHT22;15458;53.346;-1.688;2024-01-30T09:23:49;6.20;99.90
28171;DHT22;15458;53.346;-1.688;2024-01-30T09:26:14;6.20;99.90
28171;DHT22;15458;53.346;-1.688;2024-01-30T09:28:40;6.20;99.90
28171;DHT22;15458;53.346;-1.688;2024-01-30T09:31:11;6.10;99.90
28171;DHT22;15458;53.346;-1.688;2024-01-30T09:33:38;6.10;99.90
28171;DHT22;15458;53.346;-1.688;2024-01-30T09:36:05;6.10;99.90
28171;DHT22;15458;53.346;-1.688;2024-01-30T09:38:36;6.10;99.90
28171;DHT22;15458;53.346;-1.688;2024-01-30T09:41:05;6.10;99.90
28171;DHT22;15458;53.346;-1.688;2024-01-30T09:43:34;6.10;99.90
28171;DHT22;15458;53.346;-1.688;2024-01-30T09:46:02;6.00;99.90
28171;DHT22;15458;53.346;-1.688;2024-01-30T09:48:30;6.10;99.90
28171;DHT22;15458;53.346;-1.688;2024-01-30T09:50:57;6.10;99.90
28171;DHT22;15458;53.346;-1.688;2024-01-30T09:53:23;6.10;99.90
28171;DHT22;15458;53.346;-1.688;2024-01-30T09:55:50;6.10;99.90
28171;DHT22;15458;53.346;-1.688;2024-01-30T09:58:16;6.20;99.90
28171;DHT22;15458;53.346;-1.688;2024-01-30T10:00:42;6.20;99.90
28171;DHT22;15458;53.346;-1.688;2024-01-30T10:03:08;6.20;99.90
28171;DHT22;15458;53.346;-1.688;2024-01-30T10:05:36;6.20;99.90
28171;DHT22;15458;53.346;-1.688;2024-01-30T10:08:08;6.20;99.90
28171;DHT22;15458;53.346;-1.688;2024-01-30T10:10:34;6.30;99.90
28171;DHT22;15458;53.346;-1.688;2024-01-30T10:13:01;6.30;99.90
28171;DHT22;15458;53.346;-1.688;2024-01-30T10:15:28;6.40;99.90
28171;DHT22;15458;53.346;-1.688;2024-01-30T10:17:57;6.50;99.90
28171;DHT22;15458;53.346;-1.688;2024-01-30T10:20:25;6.50;99.90
28171;DHT22;15458;53.346;-1.688;2024-01-30T10:22:51;6.60;99.90
28171;DHT22;15458;53.346;-1.688;2024-01-30T10:25:21;6.60;99.90
28171;DHT22;15458;53.346;-1.688;2024-01-30T10:27:49;6.60;99.90
28171;DHT22;15458;53.346;-1.688;2024-01-30T10:30:17;6.70;99.90
28171;DHT22;15458;53.346;-1.688;2024-01-30T10:32:44;6.70;99.90
28171;DHT22;15458;53.346;-1.688;2024-01-30T10:35:10;6.70;99.90
28171;DHT22;15458;53.346;-1.688;2024-01-30T10:37:36;6.80;99.90
28171;DHT22;15458;53.346;-1.688;2024-01-30T10:40:03;6.80;99.90
28171;DHT22;15458;53.346;-1.688;2024-01-30T10:42:32;6.80;99.90
28171;DHT22;15458;53.346;-1.688;2024-01-30T10:47:43;6.90;99.90
28171;DHT22;15458;53.346;-1.688;2024-01-30T10:50:09;7.00;99.90
28171;DHT22;15458;53.346;-1.688;2024-01-30T10:52:36;7.00;99.90
28171;DHT22;15458;53.346;-1.688;2024-01-30T10:55:04;7.10;99.90
28171;DHT22;15458;53.346;-1.688;2024-01-30T10:57:34;7.10;99.90
28171;DHT22;15458;53.346;-1.688;2024-01-30T11:00:04;7.10;99.90
28171;DHT22;15458;53.346;-1.688;2024-01-30T11:02:43;7.10;99.90
28171;DHT22;15458;53.346;-1.688;2024-01-30T11:05:09;7.20;99.90
28171;DHT22;15458;53.346;-1.688;2024-01-30T11:07:35;7.30;99.90
28171;DHT22;15458;53.346;-1.688;2024-01-30T11:10:04;7.50;99.90
28171;DHT22;15458;53.346;-1.688;2024-01-30T11:12:31;7.70;99.90
28171;DHT22;15458;53.346;-1.688;2024-01-30T11:15:08;7.80;99.90
28171;DHT22;15458;53.346;-1.688;2024-01-30T11:20:25;8.10;99.90
28171;DHT22;15458;53.346;-1.688;2024-01-30T11:22:53;8.30;99.90
28171;DHT22;15458;53.346;-1.688;2024-01-30T11:25:23;8.50;99.90
28171;DHT22;15458;53.346;-1.688;2024-01-30T11:27:51;8.60;99.90
28171;DHT22;15458;53.346;-1.688;2024-01-30T11:30:24;8.70;99.90
28171;DHT22;15458;53.346;-1.688;2024-01-30T11:33:08;8.80;99.90
28171;DHT22;15458;53.346;-1.688;2024-01-30T11:35:36;8.80;99.90
28171;DHT22;15458;53.346;-1.688;2024-01-30T11:38:03;8.80;99.90
28171;DHT22;15458;53.346;-1.688;2024-01-30T11:40:30;8.80;99.90
28171;DHT22;15458;53.346;-1.688;2024-01-30T11:42:58;8.80;99.90
28171;DHT22;15458;53.346;-1.688;2024-01-30T11:45:24;8.80;99.90
28171;DHT22;15458;53.346;-1.688;2024-01-30T11:47:50;8.90;99.90
28171;DHT22;15458;53.346;-1.688;2024-01-30T11:50:16;9.00;99.90
28171;DHT22;15458;53.346;-1.688;2024-01-30T11:52:44;8.90;99.90
28171;DHT22;15458;53.346;-1.688;2024-01-30T11:55:10;8.90;99.90
28171;DHT22;15458;53.346;-1.688;2024-01-30T11:57:36;8.90;99.90
28171;DHT22;15458;53.346;-1.688;2024-01-30T12:00:06;8.90;99.90
28171;DHT22;15458;53.346;-1.688;2024-01-30T12:02:42;8.90;99.90
28171;DHT22;15458;53.346;-1.688;2024-01-30T12:05:08;9.00;99.90
28171;DHT22;15458;53.346;-1.688;2024-01-30T12:07:37;9.10;99.90
28171;DHT22;15458;53.346;-1.688;2024-01-30T12:10:03;9.20;99.90
28171;DHT22;15458;53.346;-1.688;2024-01-30T12:12:40;9.30;99.90
28171;DHT22;15458;53.346;-1.688;2024-01-30T12:15:07;9.50;99.90
28171;DHT22;15458;53.346;-1.688;2024-01-30T12:17:42;9.50;99.90
28171;DHT22;15458;53.346;-1.688;2024-01-30T12:20:22;9.50;99.90
28171;DHT22;15458;53.346;-1.688;2024-01-30T12:22:51;9.30;99.90
28171;DHT22;15458;53.346;-1.688;2024-01-30T12:25:20;9.20;99.90
28171;DHT22;15458;53.346;-1.688;2024-01-30T12:27:49;9.10;99.90
28171;DHT22;15458;53.346;-1.688;2024-01-30T12:30:17;8.80;99.90
28171;DHT22;15458;53.346;-1.688;2024-01-30T12:32:48;8.60;99.90
28171;DHT22;15458;53.346;-1.688;2024-01-30T12:35:18;8.50;99.90
28171;DHT22;15458;53.346;-1.688;2024-01-30T12:37:45;8.30;99.90
28171;DHT22;15458;53.346;-1.688;2024-01-30T12:40:17;8.30;99.90
28171;DHT22;15458;53.346;-1.688;2024-01-30T12:42:43;8.20;99.90
28171;DHT22;15458;53.346;-1.688;2024-01-30T12:45:13;8.20;99.90
28171;DHT22;15458;53.346;-1.688;2024-01-30T12:47:41;8.20;99.90
28171;DHT22;15458;53.346;-1.688;2024-01-30T12:54:07;8.00;99.90
28171;DHT22;15458;53.346;-1.688;2024-01-30T12:56:37;7.90;99.90
28171;DHT22;15458;53.346;-1.688;2024-01-30T12:59:03;7.90;99.90
28171;DHT22;15458;53.346;-1.688;2024-01-30T13:01:28;8.20;99.90
28171;DHT22;15458;53.346;-1.688;2024-01-30T13:03:54;8.70;99.90
28171;DHT22;15458;53.346;-1.688;2024-01-30T13:06:39;9.40;99.90
28171;DHT22;15458;53.346;-1.688;2024-01-30T13:09:08;10.20;99.90
28171;DHT22;15458;53.346;-1.688;2024-01-30T13:11:34;10.80;99.90
28171;DHT22;15458;53.346;-1.688;2024-01-30T13:14:01;11.40;99.90
28171;DHT22;15458;53.346;-1.688;2024-01-30T13:16:27;12.00;99.90
28171;DHT22;15458;53.346;-1.688;2024-01-30T13:18:53;12.30;99.90
28171;DHT22;15458;53.346;-1.688;2024-01-30T13:21:36;12.40;99.90
28171;DHT22;15458;53.346;-1.688;2024-01-30T13:24:03;12.40;99.90
28171;DHT22;15458;53.346;-1.688;2024-01-30T13:26:29;12.40;99.90
28171;DHT22;15458;53.346;-1.688;2024-01-30T13:28:56;12.70;99.90
28171;DHT22;15458;53.346;-1.688;2024-01-30T13:31:22;12.90;99.90
28171;DHT22;15458;53.346;-1.688;2024-01-30T13:33:48;13.20;99.90
28171;DHT22;15458;53.346;-1.688;2024-01-30T13:36:14;13.50;99.90
28171;DHT22;15458;53.346;-1.688;2024-01-30T13:38:40;13.80;99.90
28171;DHT22;15458;53.346;-1.688;2024-01-30T13:41:07;14.10;99.50
28171;DHT22;15458;53.346;-1.688;2024-01-30T13:43:34;14.20;97.60
28171;DHT22;15458;53.346;-1.688;2024-01-30T13:46:00;13.90;94.70
28171;DHT22;15458;53.346;-1.688;2024-01-30T13:48:26;13.40;93.50
28171;DHT22;15458;53.346;-1.688;2024-01-30T13:50:51;12.90;92.90
28171;DHT22;15458;53.346;-1.688;2024-01-30T13:53:18;12.50;93.40
28171;DHT22;15458;53.346;-1.688;2024-01-30T13:55:44;12.40;94.10
28171;DHT22;15458;53.346;-1.688;2024-01-30T13:58:10;12.40;94.30
28171;DHT22;15458;53.346;-1.688;2024-01-30T14:00:35;12.60;94.10
28171;DHT22;15458;53.346;-1.688;2024-01-30T14:03:01;13.00;93.80
28171;DHT22;15458;53.346;-1.688;2024-01-30T14:05:27;13.40;92.90
28171;DHT22;15458;53.346;-1.688;2024-01-30T14:07:54;13.70;91.50
28171;DHT22;15458;53.346;-1.688;2024-01-30T14:10:20;13.80;90.20
28171;DHT22;15458;53.346;-1.688;2024-01-30T14:12:46;14.00;90.00
28171;DHT22;15458;53.346;-1.688;2024-01-30T14:15:14;14.30;89.60
28171;DHT22;15458;53.346;-1.688;2024-01-30T14:17:40;14.60;88.00
28171;DHT22;15458;53.346;-1.688;2024-01-30T14:20:07;14.80;85.60
28171;DHT22;15458;53.346;-1.688;2024-01-30T14:22:36;14.80;84.80
28171;DHT22;15458;53.346;-1.688;2024-01-30T14:25:03;14.90;84.30
28171;DHT22;15458;53.346;-1.688;2024-01-30T14:27:30;15.10;83.80
28171;DHT22;15458;53.346;-1.688;2024-01-30T14:29:59;15.30;82.40
28171;DHT22;15458;53.346;-1.688;2024-01-30T14:32:26;15.30;80.20
28171;DHT22;15458;53.346;-1.688;2024-01-30T14:34:54;15.10;79.40
28171;DHT22;15458;53.346;-1.688;2024-01-30T14:37:23;15.20;79.50
28171;DHT22;15458;53.346;-1.688;2024-01-30T14:39:49;15.40;78.20
28171;DHT22;15458;53.346;-1.688;2024-01-30T14:42:17;15.50;75.90
28171;DHT22;15458;53.346;-1.688;2024-01-30T14:44:43;15.40;73.90
28171;DHT22;15458;53.346;-1.688;2024-01-30T14:47:09;15.50;73.80
28171;DHT22;15458;53.346;-1.688;2024-01-30T14:49:35;15.50;72.50
28171;DHT22;15458;53.346;-1.688;2024-01-30T14:52:01;15.40;72.50
28171;DHT22;15458;53.346;-1.688;2024-01-30T14:54:29;15.40;71.80
28171;DHT22;15458;53.346;-1.688;2024-01-30T14:56:55;15.10;70.90
28171;DHT22;15458;53.346;-1.688;2024-01-30T14:59:21;14.80;71.40
28171;DHT22;15458;53.346;-1.688;2024-01-30T15:01:47;14.50;71.50
28171;DHT22;15458;53.346;-1.688;2024-01-30T15:04:13;14.40;71.50
28171;DHT22;15458;53.346;-1.688;2024-01-30T15:06:40;14.40;71.70
28171;DHT22;15458;53.346;-1.688;2024-01-30T15:09:11;14.60;71.60
28171;DHT22;15458;53.346;-1.688;2024-01-30T15:11:40;14.70;71.80
28171;DHT22;15458;53.346;-1.688;2024-01-30T15:14:06;14.70;71.50
28171;DHT22;15458;53.346;-1.688;2024-01-30T15:16:32;14.60;71.40
28171;DHT22;15458;53.346;-1.688;2024-01-30T15:18:58;14.00;71.90
28171;DHT22;15458;53.346;-1.688;2024-01-30T15:21:24;13.40;73.10
28171;DHT22;15458;53.346;-1.688;2024-01-30T15:23:50;12.70;74.30
28171;DHT22;15458;53.346;-1.688;2024-01-30T15:26:15;12.10;75.70
28171;DHT22;15458;53.346;-1.688;2024-01-30T15:28:41;11.60;76.90
28171;DHT22;15458;53.346;-1.688;2024-01-30T15:31:07;11.20;78.10
28171;DHT22;15458;53.346;-1.688;2024-01-30T15:33:33;10.80;79.10